• Join FlightAware (Why Join?)
  • Login
  • US Flag GB Flag 
16:36 EST


 

Airport Tracker/Info


-or-


 

Live Flight TrackerFlight Track Log ✈ UAL33 ✈ 29-Apr-2013 ✈ KLAX - KJFK

Flight Track Log - Related Links

Times and Time Zones

All times are in EDT time to prevent confusion due to time zone crossing. See the UAL33 flight status page for this flight to view local times or setup timezone preferences in your user account.

Time Position Orientation Groundspeed Altitude Reporting Facility
EDT Latitude Longitude Course Direction KTS MPH feet Rate Location/Type
14:58 33.9310 -118.4460 260° West 186 214 1,800  Level FlightAware
14:59 33.9290 -118.4620 261° West 211 243 2,100 1,980 Climbing FlightAware
14:59 33.9160 -118.4990 247° West 234 269 3,300 2,400 Climbing FlightAware
14:59 33.9120 -118.5120 250° West 242 278 3,700 2,220 Climbing FlightAware
15:00 33.8990 -118.5500 248° West 263 303 4,800 2,400 Climbing FlightAware
15:00 33.8900 -118.5670 237° Southwest 264 304 5,500 3,180 Climbing FlightAware
15:00 33.8700 -118.5800 208° Southwest 273 314 6,400 3,120 Climbing FlightAware
15:00 33.8610 -118.5820 190° South 274 315 6,800 2,820 Climbing FlightAware
15:01 33.8240 -118.5620 156° South 295 339 8,300 2,880 Climbing FlightAware
15:01 33.8160 -118.5410 115° Southeast 298 343 9,000 2,700 Climbing FlightAware
15:02 33.8350 -118.4830 68° East 304 350 10,800 2,400 Climbing FlightAware
15:02 33.8560 -118.4690 29° Northeast 318 366 11,200 1,500 Climbing FlightAware
15:03 33.9200 -118.4370 23° Northeast 356 410 12,300 1,980 Climbing FlightAware
15:03 33.9400 -118.4170 40° Northeast 357 411 13,200 2,820 Climbing FlightAware
15:04 33.9790 -118.3500 55° Northeast 366 421 14,900 2,460 Climbing FlightAware
15:04 34.0170 -118.2820 56° Northeast 376 433 16,500 2,400 Climbing FlightAware
15:05 34.0600 -118.2040 56° Northeast 385 443 18,300 2,280 Climbing FlightAware
15:06 34.0990 -118.1330 56° Northeast 392 451 19,800 2,220 Climbing FlightAware
15:07 34.1420 -118.0580 55° Northeast 400 460 21,300 2,100 Climbing FlightAware
15:07 34.1890 -117.9750 56° Northeast 409 471 22,800 1,860 Climbing FlightAware
15:08 34.2320 -117.8980 56° Northeast 413 475 24,000 1,800 Climbing FlightAware
15:09 34.2740 -117.8220 56° Northeast 421 484 25,200 1,800 Climbing FlightAware
15:09 34.3250 -117.7310 56° Northeast 428 493 26,600 1,800 Climbing FlightAware
15:10 34.3740 -117.6420 56° Northeast 433 498 27,900 1,680 Climbing FlightAware
15:11 34.4140 -117.5700 56° Northeast 437 503 28,900 1,440 Climbing FlightAware
15:12 34.4710 -117.4680 56° Northeast 446 513 30,000 1,320 Climbing FlightAware
15:12 34.5180 -117.3820 56° Northeast 452 520 30,900 1,560 Climbing FlightAware
15:13 34.5630 -117.3010 56° Northeast 447 514 32,100 1,860 Climbing FlightAware
15:14 34.6090 -117.2170 56° Northeast 442 509 33,400 1,740 Climbing FlightAware
15:14 34.6590 -117.1270 56° Northeast 437 503 34,600 1,380 Climbing FlightAware
15:15 34.7040 -117.0440 57° Northeast 440 506 35,400 1,080 Climbing FlightAware
15:16 34.7540 -116.9530 56° Northeast 441 507 36,200 1,080 Climbing FlightAware
15:16 34.7960 -116.8750 57° Northeast 438 504 37,000 600 Climbing FlightAware
15:17 34.8440 -116.7880 56° Northeast 438 504 37,000  Level FlightAware
15:18 34.8920 -116.7000 56° Northeast 434 499 37,000  Level FlightAware
15:18 34.9370 -116.6160 57° Northeast 435 501 37,000  Level FlightAware
15:19 34.9970 -116.5270 51° Northeast 435 501 37,000  Level FlightAware
15:20 35.0530 -116.4560 46° Northeast 437 503 37,000  Level FlightAware
15:21 35.1150 -116.3800 45° Northeast 437 503 37,000  Level FlightAware
15:21 35.1730 -116.3060 46° Northeast 437 503 37,000  Level FlightAware
15:22 35.2290 -116.2370 45° Northeast 436 502 37,000  Level FlightAware
15:23 35.2940 -116.1550 46° Northeast 435 501 37,000  Level FlightAware
15:23 35.3500 -116.0850 46° Northeast 434 499 37,000  Level FlightAware
15:24 35.4110 -116.0070 46° Northeast 434 499 37,000  Level FlightAware
15:25 35.4660 -115.9380 46° Northeast 433 498 37,000  Level FlightAware
15:26 35.5290 -115.8580 46° Northeast 432 497 37,000  Level FlightAware
15:26 35.5870 -115.7840 46° Northeast 432 497 37,000  Level FlightAware
15:27 35.6410 -115.7160 46° Northeast 432 497 37,000  Level FlightAware
15:28 35.7040 -115.6350 46° Northeast 431 496 37,000  Level FlightAware
15:28 35.7590 -115.5650 46° Northeast 430 495 37,000  Level FlightAware
15:29 35.8140 -115.4950 46° Northeast 430 495 37,000  Level FlightAware
15:30 35.8770 -115.4140 46° Northeast 430 495 37,000  Level FlightAware
15:30 35.9320 -115.3430 46° Northeast 430 495 37,000  Level FlightAware
15:31 35.9930 -115.2650 46° Northeast 431 496 37,000  Level FlightAware
15:32 36.0490 -115.1930 46° Northeast 430 495 37,000  Level FlightAware
15:32 36.0930 -115.1140 55° Northeast 436 502 37,000  Level FlightAware
15:33 36.1270 -115.0110 68° East 438 504 37,000  Level FlightAware
15:34 36.1570 -114.9130 69° East 437 503 37,000  Level FlightAware
15:35 36.1880 -114.8100 70° East 437 503 37,000  Level FlightAware
15:35 36.2170 -114.7170 69° East 438 504 37,000  Level FlightAware
15:36 36.2460 -114.6230 69° East 438 504 37,000  Level FlightAware
15:37 36.2800 -114.5140 69° East 439 505 37,000  Level FlightAware
15:37 36.3080 -114.4210 69° East 440 506 37,000  Level FlightAware
15:38 36.3400 -114.3170 69° East 439 505 37,000  Level FlightAware
15:39 36.3680 -114.2220 70° East 440 506 37,000  Level FlightAware
15:39 36.3960 -114.1290 69° East 441 507 37,000  Level FlightAware
15:40 36.4290 -114.0190 70° East 441 507 37,000  Level FlightAware
15:41 36.4580 -113.9240 69° East 441 507 37,000  Level FlightAware
15:42 36.4890 -113.8200 70° East 441 507 37,000  Level FlightAware
15:42 36.5170 -113.7240 70° East 441 507 37,000  Level FlightAware
15:43 36.5480 -113.6200 70° East 440 506 37,000  Level FlightAware
15:44 36.5780 -113.5190 70° East 441 507 37,000  Level FlightAware
15:44 36.5990 -113.4490 69° East 441 507 37,000  Level FlightAware
15:45 36.6120 -113.4020 71° East 440 506 37,000  Level FlightAware
15:45 36.6500 -113.2710 70° East 439 505 37,000  Level FlightAware
15:46 36.6700 -113.2020 70° East 439 505 37,000  Level FlightAware
15:47 36.6990 -113.1050 70° East 439 505 37,000  Level FlightAware
15:47 36.7300 -112.9970 70° East 439 505 37,000  Level FlightAware
15:48 36.7570 -112.9020 70° East 438 504 37,000  Level FlightAware
15:49 36.7840 -112.8070 70° East 439 505 37,000  Level FlightAware
15:49 36.8140 -112.7030 70° East 438 504 37,000  Level FlightAware
15:50 36.8410 -112.6050 71° East 437 503 37,000  Level FlightAware
15:51 36.8580 -112.5480 70° East 436 502 37,000  Level FlightAware
15:51 36.8880 -112.4440 70° East 436 502 37,000  Level FlightAware
15:52 36.9110 -112.3630 70° East 436 502 37,000  Level FlightAware
15:53 36.9350 -112.2820 70° East 436 502 37,000  Level FlightAware
15:54 36.9640 -112.1810 70° East 436 502 37,000  Level FlightAware
15:54 36.9880 -112.1010 69° East 436 502 37,000  Level FlightAware
15:55 37.0110 -112.0200 70° East 436 502 37,000  Level FlightAware
15:56 37.0350 -111.9390 70° East 436 502 37,000  Level FlightAware
15:56 37.0580 -111.8590 70° East 436 502 37,000  Level FlightAware
15:57 37.0870 -111.7580 70° East 436 502 37,000  Level FlightAware
15:58 37.1110 -111.6770 70° East 436 502 37,000  Level FlightAware
15:58 37.1340 -111.5960 70° East 436 502 37,000  Level FlightAware
15:59 37.1580 -111.5150 70° East 436 502 37,000  Level FlightAware
16:00 37.1810 -111.4340 70° East 436 502 37,000  Level FlightAware
16:01 37.2100 -111.3330 70° East 436 502 37,000  Level FlightAware
16:01 37.2692 -111.0375 70° East 431 496 37,000  Level Denver Center
16:02 37.3053 -110.8997 72° East 433 498 37,000  Level Denver Center
16:03 37.3414 -110.7622 72° East 433 498 37,000  Level Denver Center
16:04 37.3847 -110.6014 71° East 435 501 37,000  Level Denver Center
16:05 37.4208 -110.4628 72° East 436 502 37,000  Level Denver Center
16:06 37.4622 -110.3039 72° East 432 497 37,000  Level Denver Center
16:07 37.4983 -110.1658 72° East 433 498 37,000  Level Denver Center
16:08 37.5386 -110.0069 72° East 429 494 37,000  Level Denver Center
16:09 37.5733 -109.8711 72° East 427 491 37,000  Level Denver Center
16:11 37.6092 -109.7289 72° East 434 499 37,000  Level Denver Center
16:12 37.6508 -109.5664 72° East 436 502 37,000  Level Denver Center
16:13 37.6856 -109.4261 73° East 436 502 37,000  Level Denver Center
16:14 37.7269 -109.2600 72° East 443 510 37,000  Level Denver Center
16:15 37.7619 -109.1172 73° East 442 509 37,000  Level Denver Center
16:16 37.8089 -108.9303 72° East 436 502 37,000  Level Denver Center
16:17 37.8408 -108.7847 74° East 443 510 37,000  Level Denver Center
16:23 38.0330 -107.8390 74° East 438 504 37,000  Level FlightAware
16:24 38.0550 -107.7270 76° East 439 505 37,000  Level FlightAware
16:24 38.0730 -107.6390 75° East 439 505 37,000  Level FlightAware
16:25 38.0950 -107.5330 75° East 440 506 37,000  Level FlightAware
16:27 38.1590 -107.2080 76° East 443 510 37,000  Level FlightAware
16:28 38.1790 -107.1100 75° East 444 511 37,000  Level FlightAware
16:29 38.1980 -107.0130 76° East 445 512 37,000  Level FlightAware
16:29 38.2154 -106.9220 76° East 445 512 37,000  Level FlightAware ADS-B
16:30 38.2304 -106.8450 76° East 445 512 37,000  Level FlightAware ADS-B
16:30 38.2453 -106.7680 76° East 444 511 37,000  Level FlightAware ADS-B
16:31 38.2661 -106.6600 76° East 446 513 37,000  Level FlightAware ADS-B
16:31 38.2839 -106.5680 76° East 448 516 37,000  Level FlightAware ADS-B
16:32 38.2988 -106.4910 76° East 447 514 37,000  Level FlightAware ADS-B
16:33 38.3141 -106.4100 76° East 446 513 37,000  Level FlightAware ADS-B
16:33 38.3404 -106.2730 76° East 449 517 37,000  Level FlightAware ADS-B
16:34 38.3562 -106.1890 76° East 449 517 37,000  Level FlightAware ADS-B
16:35 38.3742 -106.0930 77° East 447 514 37,000  Level FlightAware ADS-B
16:35 38.3895 -106.0120 76° East 447 514 37,000  Level FlightAware ADS-B
16:36 38.4039 -105.9350 77° East 447 514 37,000  Level FlightAware ADS-B
16:36 38.4185 -105.8560 77° East 447 514 37,000  Level FlightAware ADS-B
16:37 38.4327 -105.7790 77° East 447 514 37,000  Level FlightAware ADS-B
16:37 38.4472 -105.7020 76° East 449 517 37,000  Level FlightAware ADS-B
16:38 38.4614 -105.6240 77° East 449 517 37,000  Level FlightAware ADS-B
16:38 38.4758 -105.5460 77° East 450 518 37,000  Level FlightAware ADS-B
16:39 38.4901 -105.4680 77° East 450 518 37,000  Level FlightAware ADS-B
16:39 38.5043 -105.3890 77° East 449 517 37,000  Level FlightAware ADS-B
16:40 38.5184 -105.3120 77° East 450 518 37,000  Level FlightAware ADS-B
16:40 38.5337 -105.2280 77° East 450 518 37,000  Level FlightAware ADS-B
16:41 38.5476 -105.1500 77° East 450 518 37,000  Level FlightAware ADS-B
16:41 38.5622 -105.0680 77° East 452 520 37,000  Level FlightAware ADS-B
16:42 38.5762 -104.9900 77° East 453 521 37,000  Level FlightAware ADS-B
16:42 38.5912 -104.9060 77° East 454 522 37,000  Level FlightAware ADS-B
16:43 38.6097 -104.8010 77° East 455 524 37,000  Level FlightAware ADS-B
16:43 38.6255 -104.7110 77° East 456 525 37,000  Level FlightAware ADS-B
16:44 38.6394 -104.6320 77° East 457 526 37,000  Level FlightAware ADS-B
16:45 38.6532 -104.5530 77° East 458 527 37,000  Level FlightAware ADS-B
16:45 38.6690 -104.4620 77° East 458 527 37,000  Level FlightAware
16:45 38.6717 -104.4470 77° East 458 527 37,000  Level FlightAware ADS-B
16:46 38.6858 -104.3650 78° East 457 526 37,000  Level FlightAware ADS-B
16:46 38.6997 -104.2840 78° East 455 524 37,000  Level FlightAware ADS-B
16:47 38.7133 -104.2040 78° East 456 525 37,000  Level FlightAware ADS-B
16:47 38.7270 -104.1250 77° East 456 525 37,000  Level FlightAware ADS-B
16:48 38.7405 -104.0450 78° East 457 526 37,000  Level FlightAware ADS-B
16:48 38.7543 -103.9630 78° East 457 526 37,000  Level FlightAware ADS-B
16:49 38.7677 -103.8840 78° East 457 526 37,000  Level FlightAware ADS-B
16:49 38.7812 -103.8030 78° East 457 526 37,000  Level FlightAware ADS-B
16:50 38.7944 -103.7230 78° East 457 526 37,000  Level FlightAware ADS-B
16:50 38.8058 -103.6540 78° East 457 526 37,000  Level FlightAware ADS-B
16:51 38.8121 -103.5940 82° East 459 528 37,000  Level FlightAware ADS-B
16:51 38.8157 -103.5090 87° East 458 527 37,000  Level FlightAware ADS-B
16:52 38.8178 -103.4280 88° East 458 527 37,000  Level FlightAware ADS-B
16:52 38.8197 -103.3440 88° East 458 527 37,000  Level FlightAware ADS-B
16:53 38.8214 -103.2610 88° East 457 526 37,000  Level FlightAware ADS-B
16:53 38.8234 -103.1780 88° East 457 526 37,000  Level FlightAware ADS-B
16:54 38.8254 -103.0950 88° East 456 525 37,000  Level FlightAware ADS-B
16:54 38.8270 -103.0130 89° East 456 525 37,000  Level FlightAware ADS-B
16:55 38.8289 -102.9310 88° East 456 525 37,000  Level FlightAware ADS-B
16:55 38.8307 -102.8490 88° East 456 525 37,000  Level FlightAware ADS-B
16:56 38.8324 -102.7670 88° East 456 525 37,000  Level FlightAware ADS-B
16:56 38.8339 -102.6840 89° East 457 526 37,000  Level FlightAware ADS-B
16:57 38.8355 -102.6010 89° East 458 527 37,000  Level FlightAware ADS-B
16:57 38.8370 -102.5180 89° East 460 529 37,000  Level FlightAware ADS-B
16:58 38.8384 -102.4320 89° East 463 533 37,000  Level FlightAware ADS-B
16:58 38.8397 -102.3470 89° East 465 535 37,000  Level FlightAware ADS-B
16:59 38.8411 -102.2630 89° East 467 537 37,000  Level FlightAware ADS-B
16:59 38.8423 -102.1760 89° East 469 540 37,000  Level FlightAware ADS-B
17:00 38.8435 -102.0880 89° East 469 540 37,000  Level FlightAware ADS-B
17:00 38.8447 -102.0050 89° East 470 541 37,000  Level FlightAware ADS-B
17:01 38.8458 -101.9200 89° East 472 543 37,000  Level FlightAware ADS-B
17:01 38.8468 -101.8350 89° East 472 543 37,000  Level FlightAware ADS-B
17:02 38.8478 -101.7430 89° East 473 544 37,000  Level FlightAware ADS-B
17:02 38.8487 -101.6580 89° East 474 545 37,000  Level FlightAware ADS-B
17:03 38.8495 -101.5730 89° East 474 545 37,000  Level FlightAware ADS-B
17:03 38.8504 -101.4790 89° East 474 545 37,000  Level FlightAware ADS-B
17:04 38.8531 -101.4528 89° East 479 551 37,000  Level Kansas City Center
17:05 38.8531 -101.2961 90° East 471 542 37,000  Level Denver Center
17:06 38.8536 -101.1369 90° East 466 536 37,000  Level Denver Center
17:07 38.8544 -100.9517 90° East 465 535 37,000  Level Denver Center
17:08 38.8553 -100.7939 90° East 462 532 37,000  Level Denver Center
17:09 38.8556 -100.6356 90° East 462 532 37,000  Level Denver Center
17:10 38.8550 -100.4506 90° East 464 534 37,000  Level Denver Center
17:11 38.8553 -100.2925 90° East 464 534 37,000  Level Denver Center
17:12 38.8547 -100.1086 90° East 462 532 37,000  Level Denver Center
17:13 38.8533 -99.9514 91° East 461 531 37,000  Level Denver Center
17:14 38.8519 -99.7647 90° East 465 535 37,000  Level Denver Center
17:15 38.8511 -99.6075 90° East 462 532 37,000  Level Denver Center
17:16 38.8492 -99.4478 91° East 465 535 37,000  Level Denver Center
17:17 38.8486 -99.2633 90° East 464 534 37,000  Level Denver Center
17:18 38.8578 -99.0772 86° East 464 534 37,000  Level Kansas City Center
17:19 38.8667 -98.9136 86° East 460 529 37,000  Level Kansas City Center
17:20 38.8750 -98.7494 86° East 459 528 37,000  Level Kansas City Center
17:21 38.8828 -98.5853 86° East 459 528 37,000  Level Kansas City Center
17:22 38.8908 -98.4208 86° East 460 529 37,000  Level Kansas City Center
17:23 38.8981 -98.2578 87° East 458 527 37,000  Level Kansas City Center
17:24 38.9067 -98.0608 87° East 458 527 37,000  Level Kansas City Center
17:25 38.9136 -97.8964 87° East 459 528 37,000  Level Kansas City Center
17:26 38.9217 -97.7211 87° East 458 527 37,000  Level Kansas City Center
17:27 38.9325 -97.5647 85° East 459 528 37,000  Level Kansas City Center
17:28 38.9547 -97.4050 80° East 463 533 37,000  Level Kansas City Center
17:30 38.9792 -97.2283 80° East 461 531 37,000  Level Kansas City Center
17:31 38.9997 -97.0722 80° East 462 532 37,000  Level Kansas City Center
17:32 39.0250 -96.8881 80° East 467 537 37,000  Level Kansas City Center
17:33 39.0453 -96.7297 81° East 469 540 37,000  Level Kansas City Center
17:34 39.0700 -96.5431 80° East 474 545 37,000  Level Kansas City Center
17:35 39.0886 -96.3836 81° East 472 543 37,000  Level Kansas City Center
17:36 39.1119 -96.1964 81° East 473 544 37,000  Level Kansas City Center
17:37 39.1317 -96.0350 81° East 476 548 37,000  Level Kansas City Center
17:38 39.1550 -95.8478 81° East 475 547 37,000  Level Kansas City Center
17:39 39.1747 -95.6867 81° East 477 549 37,000  Level Kansas City Center
17:40 39.1972 -95.4989 81° East 476 548 37,000  Level Kansas City Center
17:46 39.3120 -94.5140 81° East 473 544 37,000  Level FlightAware
17:46 39.3270 -94.4010 80° East 474 545 37,000  Level FlightAware
17:47 39.3420 -94.2880 80° East 475 547 37,000  Level FlightAware
17:48 39.3570 -94.1620 81° East 476 548 37,000  Level FlightAware
17:49 39.3720 -94.0480 80° East 477 549 37,000  Level FlightAware
17:49 39.3870 -93.9260 81° East 478 550 37,000  Level FlightAware
17:50 39.4010 -93.8120 81° East 478 550 37,000  Level FlightAware
17:51 39.4170 -93.6840 81° East 478 550 37,000  Level FlightAware
17:51 39.4310 -93.5720 81° East 478 550 37,000  Level FlightAware
17:52 39.4450 -93.4580 81° East 478 550 37,000  Level FlightAware
17:53 39.4590 -93.3350 82° East 478 550 37,000  Level FlightAware
17:53 39.4730 -93.2210 81° East 478 550 37,000  Level FlightAware
17:54 39.4880 -93.0940 81° East 478 550 37,000  Level FlightAware
17:55 39.5010 -92.9800 82° East 477 549 37,000  Level FlightAware
17:56 39.5140 -92.8690 81° East 477 549 37,000  Level FlightAware
17:56 39.5290 -92.7370 82° East 477 549 37,000  Level FlightAware
17:57 39.5390 -92.6510 81° East 477 549 37,000  Level FlightAware
17:58 39.5540 -92.5200 82° East 475 547 37,000  Level FlightAware
17:58 39.5670 -92.4070 81° East 475 547 37,000  Level FlightAware
17:59 39.5800 -92.2790 82° East 475 547 37,000  Level FlightAware
18:00 39.5970 -92.1280 82° East 474 545 37,000  Level FlightAware
18:01 39.6110 -92.0060 81° East 473 544 37,000  Level FlightAware
18:02 39.6270 -91.8460 83° East 473 544 37,000  Level FlightAware
18:02 39.6400 -91.7200 82° East 474 545 37,000  Level FlightAware
18:03 39.6520 -91.6130 82° East 474 545 37,000  Level FlightAware
18:04 39.6620 -91.5170 82° East 474 545 37,000  Level FlightAware
18:04 39.6770 -91.3590 83° East 473 544 37,000  Level FlightAware
18:05 39.6880 -91.2510 82° East 474 545 37,000  Level FlightAware
18:06 39.7010 -91.1260 82° East 474 545 37,000  Level FlightAware
18:07 39.7120 -91.0160 83° East 474 545 37,000  Level FlightAware
18:07 39.7250 -90.8850 83° East 474 545 37,000  Level FlightAware
18:08 39.7360 -90.7670 83° East 474 545 37,000  Level FlightAware
18:09 39.7460 -90.6590 83° East 474 545 37,000  Level FlightAware
18:09 39.7560 -90.5510 83° East 474 545 37,000  Level FlightAware
18:10 39.7690 -90.4200 83° East 475 547 37,000  Level FlightAware
18:11 39.7800 -90.3030 83° East 474 545 37,000  Level FlightAware
18:11 39.7900 -90.1880 84° East 475 547 37,000  Level FlightAware
18:12 39.8000 -90.0740 83° East 475 547 37,000  Level FlightAware
18:13 39.8120 -89.9450 83° East 475 547 37,000  Level FlightAware
18:14 39.8230 -89.8250 83° East 474 545 37,000  Level FlightAware
18:14 39.8330 -89.6990 84° East 474 545 37,000  Level FlightAware
18:15 39.8370 -89.5580 88° East 474 545 37,000  Level FlightAware
18:16 39.8370 -89.4280 90° East 475 547 37,000  Level FlightAware
18:17 39.8370 -89.2990 90° East 475 547 37,000  Level FlightAware
18:17 39.8370 -89.2150 90° East 476 548 37,000  Level FlightAware
18:18 39.8380 -89.0740 89° East 476 548 37,000  Level FlightAware
18:19 39.8380 -88.9670 90° East 475 547 37,000  Level FlightAware
18:19 39.8380 -88.8610 90° East 475 547 37,000  Level FlightAware
18:20 39.8380 -88.7050 90° East 475 547 37,000  Level FlightAware
18:21 39.8370 -88.5830 91° East 475 547 37,000  Level FlightAware
18:21 39.8370 -88.4890 90° East 475 547 37,000  Level FlightAware
18:22 39.8360 -88.3450 90° East 475 547 37,000  Level FlightAware
18:23 39.8360 -88.2380 90° East 475 547 37,000  Level FlightAware
18:24 39.8360 -88.1300 90° East 475 547 37,000  Level FlightAware
18:24 39.8340 -87.9850 91° East 476 548 37,000  Level FlightAware
18:25 39.8330 -87.8670 91° East 476 548 37,000  Level FlightAware
18:26 39.8320 -87.7430 91° East 475 547 37,000  Level FlightAware
18:26 39.8310 -87.6330 91° East 475 547 37,000  Level FlightAware
18:27 39.8290 -87.5030 91° East 474 545 37,000  Level FlightAware
18:28 39.8280 -87.3890 91° East 474 545 37,000  Level FlightAware
18:29 39.8260 -87.2320 91° East 473 544 37,000  Level FlightAware
18:29 39.8240 -87.1230 91° East 473 544 37,000  Level FlightAware
18:30 39.8220 -86.9850 91° East 473 544 37,000  Level FlightAware
18:31 39.8200 -86.8790 91° East 472 543 37,000  Level FlightAware
18:31 39.8190 -86.7880 91° East 472 543 37,000  Level FlightAware
18:32 39.8170 -86.7000 92° East 471 542 37,000  Level FlightAware
18:33 39.8140 -86.5510 91° East 470 541 37,000  Level FlightAware
18:33 39.8120 -86.4400 91° East 470 541 37,000  Level FlightAware
18:34 39.8180 -86.3230 86° East 468 539 37,000  Level FlightAware
18:35 39.8390 -86.2120 76° East 467 537 37,000  Level FlightAware
18:35 39.8660 -86.0940 73° East 466 536 37,000  Level FlightAware
18:36 39.8920 -85.9740 74° East 467 537 37,000  Level FlightAware
18:37 39.9120 -85.8750 75° East 466 536 37,000  Level FlightAware
18:38 39.9400 -85.7450 74° East 466 536 37,000  Level FlightAware
18:38 39.9590 -85.6550 75° East 467 537 37,000  Level FlightAware
18:39 39.9850 -85.5260 75° East 467 537 37,000  Level FlightAware
18:40 40.0080 -85.4180 74° East 466 536 37,000  Level FlightAware
18:40 40.0320 -85.3000 75° East 466 536 37,000  Level FlightAware
18:41 40.0580 -85.1730 75° East 466 536 37,000  Level FlightAware
18:42 40.0840 -85.0450 75° East 466 536 37,000  Level FlightAware
18:43 40.1080 -84.9290 75° East 466 536 37,000  Level FlightAware
18:43 40.1350 -84.7940 75° East 466 536 37,000  Level FlightAware
18:44 40.1570 -84.6860 75° East 466 536 37,000  Level FlightAware
18:45 40.1870 -84.5320 76° East 464 534 37,000  Level FlightAware
18:46 40.2050 -84.4400 76° East 464 534 37,000  Level FlightAware
18:46 40.2310 -84.3100 75° East 463 533 37,000  Level FlightAware
18:47 40.2530 -84.1980 76° East 463 533 37,000  Level FlightAware
18:48 40.2790 -84.0720 75° East 458 527 37,000  Level FlightAware
18:49 40.3200 -83.9790 60° Northeast 448 516 37,000  Level FlightAware
18:49 40.3700 -83.8920 53° Northeast 447 514 37,000  Level FlightAware
18:50 40.4270 -83.7970 52° Northeast 446 513 37,000  Level FlightAware
18:51 40.4780 -83.7110 52° Northeast 447 514 37,000  Level FlightAware
18:51 40.5340 -83.6150 52° Northeast 447 514 37,000  Level FlightAware
18:52 40.5840 -83.5300 52° Northeast 447 514 37,000  Level FlightAware
18:53 40.6340 -83.4440 53° Northeast 447 514 37,000  Level FlightAware
18:53 40.6930 -83.3430 52° Northeast 446 513 37,000  Level FlightAware
18:54 40.7470 -83.2500 53° Northeast 446 513 37,000  Level FlightAware
18:55 40.8170 -83.1290 53° Northeast 448 516 37,000  Level FlightAware
18:56 40.8540 -83.0380 62° Northeast 454 522 37,000  Level FlightAware
18:56 40.8820 -82.9240 72° East 457 526 37,000  Level FlightAware
18:57 40.9080 -82.8060 74° East 457 526 37,000  Level FlightAware
18:58 40.9310 -82.6990 74° East 456 525 37,000  Level FlightAware
18:59 40.9570 -82.5790 74° East 457 526 37,000  Level FlightAware
18:59 40.9800 -82.4710 74° East 457 526 37,000  Level FlightAware
19:00 41.0060 -82.3490 74° East 456 525 37,000  Level FlightAware
19:01 41.0290 -82.2400 74° East 455 524 37,000  Level FlightAware
19:01 41.0520 -82.1340 74° East 454 522 37,000  Level FlightAware
19:02 41.0770 -82.0170 74° East 454 522 37,000  Level FlightAware
19:03 41.1000 -81.9100 74° East 453 521 37,000  Level FlightAware
19:04 41.1260 -81.7850 75° East 453 521 37,000  Level FlightAware
19:04 41.1490 -81.6810 74° East 453 521 37,000  Level FlightAware
19:05 41.1710 -81.5740 75° East 452 520 37,000  Level FlightAware
19:06 41.1950 -81.4600 74° East 452 520 37,000  Level FlightAware
19:06 41.2180 -81.3490 75° East 451 519 37,000  Level FlightAware
19:07 41.2440 -81.2260 74° East 450 518 37,000  Level FlightAware
19:08 41.2650 -81.1220 75° East 447 514 37,000  Level FlightAware
19:08 41.2870 -81.0150 75° East 446 513 37,000  Level FlightAware
19:09 41.3110 -80.8980 75° East 444 511 37,000  Level FlightAware
19:10 41.3320 -80.7950 75° East 441 507 37,000  Level FlightAware
19:11 41.3560 -80.6730 75° East 440 506 37,000  Level FlightAware
19:11 41.3770 -80.5690 75° East 439 505 37,000  Level FlightAware
19:12 41.3980 -80.4650 75° East 439 505 37,000  Level FlightAware
19:13 41.4190 -80.3550 76° East 438 504 37,000  Level FlightAware
19:13 41.4400 -80.2500 75° East 438 504 37,000  Level FlightAware
19:14 41.4640 -80.1270 75° East 439 505 37,000  Level FlightAware
19:15 41.4840 -80.0220 76° East 439 505 37,000  Level FlightAware
19:15 41.5040 -79.9210 75° East 442 509 37,000  Level FlightAware
19:16 41.5180 -79.8480 76° East 443 510 37,000  Level FlightAware
19:17 41.5400 -79.7290 76° East 444 511 37,000 -720 Level FlightAware
19:18 41.5690 -79.5760 76° East 450 518 35,900 -1,080 Descending FlightAware
19:18 41.5890 -79.4690 76° East 442 509 35,300 -720 Descending FlightAware
19:19 41.6080 -79.3640 76° East 439 505 35,000 -240 Descending FlightAware
19:20 41.6200 -79.2420 82° East 450 518 35,000  Level FlightAware
19:20 41.6250 -79.1310 87° East 458 527 35,000  Level FlightAware
19:21 41.6310 -79.0050 86° East 463 533 35,000  Level FlightAware
19:22 41.6350 -78.8880 87° East 461 531 35,000  Level FlightAware
19:22 41.6390 -78.7750 87° East 457 526 35,000  Level FlightAware
19:23 41.6440 -78.6450 87° East 455 524 35,000  Level FlightAware
19:24 41.6480 -78.5340 87° East 454 522 35,000  Level FlightAware
19:24 41.6510 -78.4200 88° East 452 520 35,000  Level FlightAware
19:25 41.6550 -78.2980 87° East 451 519 35,000  Level FlightAware
19:26 41.6590 -78.1880 87° East 451 519 35,000  Level FlightAware
19:27 41.6620 -78.0770 88° East 451 519 35,000  Level FlightAware
19:27 41.6650 -77.9550 88° East 452 520 35,000  Level FlightAware
19:28 41.6690 -77.8240 88° East 452 520 35,000  Level FlightAware
19:29 41.6710 -77.7140 89° East 452 520 35,000  Level FlightAware
19:29 41.6740 -77.6010 88° East 453 521 35,000  Level FlightAware
19:30 41.6770 -77.4860 88° East 454 522 35,000  Level FlightAware
19:31 41.6800 -77.3640 88° East 455 524 35,000  Level FlightAware
19:32 41.6820 -77.2360 89° East 456 525 35,000  Level FlightAware
19:32 41.6710 -77.1280 98° East 460 529 35,000  Level FlightAware
19:33 41.6440 -77.0230 109° East 461 531 35,000  Level FlightAware
19:34 41.6100 -76.9000 110° East 461 531 35,000  Level FlightAware
19:34 41.5830 -76.8040 111° Southeast 461 531 35,000  Level FlightAware
19:35 41.5470 -76.6730 110° East 461 531 35,000  Level FlightAware
19:36 41.5180 -76.5660 110° East 461 531 35,000  Level FlightAware
19:36 41.4878 -76.4585 111° Southeast 462 532 35,000  Level FlightAware ADS-B
19:37 41.4650 -76.3765 110° East 462 532 35,000  Level FlightAware ADS-B
19:37 41.4413 -76.2918 110° East 462 532 35,000  Level FlightAware ADS-B
19:38 41.4186 -76.2115 111° Southeast 462 532 35,000 -300 Level FlightAware ADS-B
19:38 41.3958 -76.1306 111° Southeast 463 533 34,700 -1,500 Descending FlightAware ADS-B
19:39 41.3721 -76.0477 111° Southeast 464 534 33,500 -2,580 Descending FlightAware ADS-B
19:39 41.3476 -75.9610 111° Southeast 471 542 32,000 -2,820 Descending FlightAware ADS-B
19:40 41.3233 -75.8759 111° Southeast 474 545 30,500 -2,640 Descending FlightAware ADS-B
19:40 41.2995 -75.7927 111° Southeast 469 540 29,300 -2,220 Descending FlightAware ADS-B
19:41 41.2758 -75.7115 111° Southeast 459 528 28,300 -2,100 Descending FlightAware ADS-B
19:41 41.2507 -75.6332 113° Southeast 453 521 27,200 -2,160 Descending FlightAware ADS-B
19:42 41.2224 -75.5483 114° Southeast 443 510 26,000 -2,100 Descending FlightAware ADS-B
19:43 41.1975 -75.4744 114° Southeast 433 498 25,000 -2,040 Descending FlightAware ADS-B
19:43 41.1713 -75.3972 114° Southeast 425 489 23,900 -1,800 Descending FlightAware ADS-B
19:44 41.1452 -75.3201 114° Southeast 416 479 23,100 -900 Descending FlightAware ADS-B
19:44 41.1206 -75.2478 114° Southeast 411 473 23,000 -120 Descending FlightAware ADS-B
19:45 41.0968 -75.1779 114° Southeast 413 475 23,000  Level FlightAware ADS-B
19:45 41.0736 -75.1101 114° Southeast 405 466 23,000  Level FlightAware ADS-B
19:46 41.0490 -75.0387 115° Southeast 415 478 23,000 -420 Level FlightAware ADS-B
19:46 41.0252 -74.9692 114° Southeast 412 474 22,600 -1,080 Descending FlightAware ADS-B
19:47 41.0046 -74.9089 114° Southeast 408 470 22,000 -1,320 Descending FlightAware ADS-B
19:47 40.9973 -74.8839 111° Southeast 407 468 21,800 -1,320 Descending FlightAware ADS-B
19:47 40.9929 -74.8650 107° East 405 466 21,600 -1,440 Descending FlightAware ADS-B
19:47 40.9905 -74.8525 104° East 405 466 21,500 -1,200 Descending FlightAware ADS-B
19:47 40.9814 -74.7891 101° East 397 457 21,000 -960 Descending FlightAware ADS-B
19:48 40.9795 -74.7731 99° East 392 451 21,000  Level FlightAware ADS-B
19:48 40.9735 -74.7196 98° East 364 419 21,000  Level FlightAware ADS-B
19:48 40.9720 -74.7055 98° East 361 415 21,000 -840 Level FlightAware ADS-B
19:48 40.9665 -74.6535 98° East 351 404 20,600 -1,080 Descending FlightAware ADS-B
19:49 40.9641 -74.6310 98° East 350 403 20,400 -1,080 Descending FlightAware ADS-B
19:49 40.9586 -74.5809 98° East 346 398 20,000 -780 Descending FlightAware ADS-B
19:49 40.9577 -74.5634 94° East 343 395 20,000  Level FlightAware ADS-B
19:49 40.9591 -74.5447 84° East 342 394 20,000  Level FlightAware ADS-B
19:49 40.9620 -74.5297 76° East 342 394 20,000 -180 Level FlightAware ADS-B
19:50 40.9795 -74.4705 69° East 345 397 19,900 -540 Descending FlightAware ADS-B
19:50 40.9900 -74.4362 68° East 343 395 19,600 -900 Descending FlightAware ADS-B
19:50 40.9914 -74.4310 70° East 343 395 19,600  Level FlightAware ADS-B
19:50 40.9927 -74.4250 74° East 343 395 19,600 -780 Level FlightAware ADS-B
19:50 40.9946 -74.4144 77° East 343 395 19,500 -1,140 Descending FlightAware ADS-B
19:51 40.9960 -74.4020 81° East 342 394 19,400 -960 Descending FlightAware ADS-B
19:51 40.9963 -74.3877 88° East 341 392 19,300 -840 Descending FlightAware ADS-B
19:51 40.9953 -74.3713 95° East 341 392 19,200 -600 Descending FlightAware ADS-B
19:51 40.9946 -74.3660 100° East 343 395 19,200 -1,200 Level FlightAware ADS-B
19:51 40.9939 -74.3618 102° East 340 391 19,100 -840 Descending FlightAware ADS-B
19:51 40.9869 -74.3357 110° East 337 388 19,000 -180 Descending FlightAware ADS-B
19:52 40.9649 -74.2787 117° Southeast 341 392 19,000  Level FlightAware ADS-B
19:52 40.9522 -74.2489 119° Southeast 342 394 19,000  Level FlightAware ADS-B
19:52 40.9457 -74.2346 121° Southeast 341 392 19,000  Level FlightAware ADS-B
19:52 40.9263 -74.1938 122° Southeast 340 391 19,000  Level FlightAware ADS-B
19:53 40.9175 -74.1754 122° Southeast 340 391 19,000  Level FlightAware ADS-B
19:53 40.9012 -74.1405 122° Southeast 340 391 19,000  Level FlightAware ADS-B
19:53 40.8927 -74.1219 121° Southeast 338 389 19,000 -240 Level FlightAware ADS-B
19:53 40.8763 -74.0865 121° Southeast 336 387 18,900 -840 Descending FlightAware ADS-B
19:54 40.8679 -74.0680 121° Southeast 336 387 18,600 -1,620 Descending FlightAware ADS-B
19:54 40.8523 -74.0341 121° Southeast 334 384 18,100 -1,620 Descending FlightAware ADS-B
19:54 40.8436 -74.0153 121° Southeast 334 384 17,800 -1,620 Descending FlightAware ADS-B
19:54 40.8284 -73.9818 121° Southeast 334 384 17,300 -1,560 Descending FlightAware ADS-B
19:55 40.8190 -73.9613 121° Southeast 333 383 17,000 -1,440 Descending FlightAware ADS-B
19:55 40.8046 -73.9299 121° Southeast 329 379 16,600 -1,380 Descending FlightAware ADS-B
19:55 40.7804 -73.8776 121° Southeast 323 372 15,900 -1,200 Descending FlightAware ADS-B
19:56 40.7768 -73.8704 123° Southeast 321 369 15,900 -1,200 Level FlightAware ADS-B
19:56 40.7588 -73.8376 126° Southeast 328 377 15,400 -1,380 Descending FlightAware ADS-B
19:56 40.7498 -73.8216 127° Southeast 313 360 15,200 -1,320 Descending FlightAware ADS-B
19:57 40.7238 -73.7746 126° Southeast 309 356 14,500 -1,380 Descending FlightAware ADS-B
19:57 40.6808 -73.7045 129° Southeast 305 351 13,400 -1,320 Descending FlightAware ADS-B
19:58 40.6384 -73.6783 155° Southeast 305 351 12,700 -1,380 Descending FlightAware ADS-B
19:58 40.6309 -73.6743 158° South 292 336 12,500 -1,440 Descending FlightAware ADS-B
19:58 40.6070 -73.6616 158° South 289 333 12,100 -1,440 Descending FlightAware ADS-B
19:58 40.5989 -73.6591 167° South 288 331 11,900 -1,740 Descending FlightAware ADS-B
19:59 40.5895 -73.6573 172° South 287 330 11,700 -2,100 Descending FlightAware ADS-B
19:59 40.5480 -73.6536 176° South 285 328 10,600 -2,220 Descending FlightAware ADS-B
19:59 40.5238 -73.6520 177° South 284 327 9,900 -2,040 Descending FlightAware ADS-B
20:00 40.5047 -73.6510 178° South 283 326 9,500 -1,620 Descending FlightAware ADS-B
20:00 40.5002 -73.6510 180° South 282 325 9,400 -1,860 Descending FlightAware ADS-B
20:00 40.4887 -73.6534 189° South 282 325 9,100 -1,740 Descending FlightAware ADS-B
20:00 40.4819 -73.6567 200° South 281 323 9,000 -1,200 Descending FlightAware ADS-B
20:00 40.4759 -73.6601 203° Southwest 281 323 8,900 -1,800 Descending FlightAware ADS-B
20:00 40.4584 -73.6718 207° Southwest 278 320 8,400 -1,920 Descending FlightAware ADS-B
20:01 40.4391 -73.6852 208° Southwest 274 315 7,900 -1,800 Descending FlightAware ADS-B
20:01 40.4204 -73.6982 208° Southwest 269 310 7,400 -1,920 Descending FlightAware ADS-B
20:01 40.4039 -73.7095 208° Southwest 265 305 6,900 -2,160 Descending FlightAware ADS-B
20:01 40.3808 -73.7258 208° Southwest 261 300 6,100 -2,220 Descending FlightAware ADS-B
20:02 40.3641 -73.7379 209° Southwest 259 298 5,500 -2,160 Descending FlightAware ADS-B
20:02 40.3530 -73.7490 217° Southwest 260 299 5,100 -2,100 Descending FlightAware ADS-B
20:02 40.3468 -73.7607 235° Southwest 260 299 4,800 -2,040 Descending FlightAware ADS-B
20:02 40.3450 -73.7655 244° Southwest 260 299 4,700 -2,220 Descending FlightAware ADS-B
20:02 40.3416 -73.7759 247° West 259 298 4,400 -2,220 Descending FlightAware ADS-B
20:02 40.3356 -73.7985 251° West 260 299 3,900 -1,680 Descending FlightAware ADS-B
20:03 40.3274 -73.8306 251° West 258 297 3,400 -1,080 Descending FlightAware ADS-B
20:03 40.3212 -73.8735 259° West 254 292 3,000 -840 Descending FlightAware ADS-B
20:03 40.3246 -73.8865 289° West 254 292 2,900 -720 Descending FlightAware ADS-B
20:04 40.3301 -73.8972 304° West 252 290 2,800 -480 Descending FlightAware ADS-B
20:04 40.3428 -73.9178 309° West 248 285 2,700  Descending FlightAware ADS-B
20:04 40.3585 -73.9423 310° West 219 252 2,800  Climbing FlightAware ADS-B
20:05 40.3694 -73.9595 310° West 217 250 2,700 -240 Descending FlightAware ADS-B
20:05 40.3792 -73.9747 310° West 217 250 2,700  Level FlightAware ADS-B
20:05 40.3837 -73.9814 311° West 216 249 2,700  Level FlightAware ADS-B
20:05 40.3942 -73.9910 325° Northwest 220 253 2,700  Level FlightAware ADS-B
20:05 40.4002 -73.9931 345° North 219 252 2,700  Level FlightAware ADS-B
20:06 40.4185 -73.9954 355° North 225 259 2,700  Level FlightAware ADS-B
20:06 40.4482 -73.9990 355° North 225 259 2,700  Level FlightAware ADS-B
20:06 40.4553 -73.9995 357° North 216 249 2,700  Level FlightAware ADS-B
20:07 40.5080 -73.9670 25° Northeast 201 231 2,700 -180 Level FlightAware
20:08 40.5280 -73.9520 30° Northeast 206 237 2,500 -600 Descending FlightAware
20:08 40.5520 -73.9330 31° Northeast 191 220 2,200 -840 Descending FlightAware
20:09 40.5740 -73.9160 30° Northeast 181 208 1,700 -900 Descending FlightAware
20:09 40.5920 -73.9010 32° Northeast 181 208 1,400 -780 Descending FlightAware
20:09 40.6020 -73.8930 31° Northeast 172 198 1,200 -420 Descending FlightAware
20:10 40.6210 -73.8800 27° Northeast 142 163 1,100 -600 Descending FlightAware
20:10 40.6360 -73.8690 29° Northeast 138 159 700 -660 Descending FlightAware
20:11 40.6490 -73.8550 39° Northeast 130 150 500 -420 Descending FlightAware
20:11 40.6550 -73.8450 52° Northeast 121 139 400  Descending FlightAware
20:11 40.6560 -73.8380 79° East 120 138 500 -300 Climbing FlightAware
20:12 40.6570 -73.8170 86° East 118 136 200 -540 Descending FlightAware
20:12 40.6540 -73.8060 110° East 116 133 100 -420 Descending FlightAware
20:12 40.6470 -73.7920 123° Southeast 116 133 -240 Descending FlightAware